createdAt,value
2023-04-28T00:00:21.774Z,5.67
2023-04-28T00:02:52.363Z,4.93
2023-04-28T00:05:19.549Z,6.17
2023-04-28T00:07:46.571Z,5.50
2023-04-28T00:10:13.412Z,5.40
2023-04-28T00:12:40.213Z,5.43
2023-04-28T00:15:07.495Z,5.90
2023-04-28T00:17:34.352Z,5.30
2023-04-28T00:20:01.102Z,5.40
2023-04-28T00:22:27.852Z,6.17
2023-04-28T00:24:54.573Z,5.90
2023-04-28T00:27:21.261Z,5.87
2023-04-28T00:29:47.943Z,6.00
2023-04-28T00:32:14.709Z,5.60
2023-04-28T00:34:41.516Z,6.00
2023-04-28T00:37:08.246Z,5.43
2023-04-28T00:39:34.967Z,5.40
2023-04-28T00:42:02.376Z,6.23
2023-04-28T00:44:29.061Z,6.03
2023-04-28T00:46:56.639Z,5.20
2023-04-28T00:49:23.381Z,5.20
2023-04-28T00:51:50.114Z,5.50
2023-04-28T00:54:17.425Z,6.17
2023-04-28T00:56:44.796Z,5.50
2023-04-28T00:59:11.485Z,5.00
2023-04-28T01:01:38.549Z,5.47
2023-04-28T01:04:05.485Z,5.50
2023-04-28T01:06:33.164Z,5.83
2023-04-28T01:08:59.920Z,5.23
2023-04-28T01:11:26.696Z,5.27
2023-04-28T01:13:53.550Z,6.57
2023-04-28T01:16:20.657Z,4.80
2023-04-28T01:18:48.547Z,5.40
2023-04-28T01:21:15.370Z,5.90
2023-04-28T01:23:48.611Z,5.40
2023-04-28T01:26:15.418Z,5.07
2023-04-28T01:28:42.137Z,5.50
2023-04-28T01:31:09.273Z,5.77
2023-04-28T01:33:36.909Z,5.70
2023-04-28T01:36:03.742Z,5.50
2023-04-28T01:38:30.698Z,4.93
2023-04-28T01:40:58.553Z,5.60
2023-04-28T01:43:25.403Z,6.10
2023-04-28T01:45:52.123Z,5.83
2023-04-28T01:48:18.892Z,5.27
2023-04-28T01:50:45.933Z,5.10
2023-04-28T01:53:12.742Z,5.50
2023-04-28T01:56:16.832Z,5.70
2023-04-28T01:58:43.644Z,5.47
2023-04-28T02:01:10.517Z,5.77
2023-04-28T02:03:37.397Z,5.60
2023-04-28T02:06:04.897Z,5.50
2023-04-28T02:08:31.842Z,6.73
2023-04-28T02:10:58.547Z,5.30
2023-04-28T02:13:25.230Z,5.70
2023-04-28T02:15:52.068Z,5.20
2023-04-28T02:18:18.870Z,5.20
2023-04-28T02:20:45.754Z,6.03
2023-04-28T02:23:12.506Z,5.80
2023-04-28T02:25:39.178Z,5.73
2023-04-28T02:28:05.932Z,6.43
2023-04-28T02:30:33.020Z,6.47
2023-04-28T02:32:59.754Z,5.80
2023-04-28T02:35:26.538Z,6.03
2023-04-28T02:37:53.233Z,6.00
2023-04-28T02:40:20.046Z,6.10
2023-04-28T02:42:46.827Z,6.70
2023-04-28T02:45:13.659Z,5.30
2023-04-28T02:47:40.489Z,5.67
2023-04-28T02:50:08.050Z,7.13
2023-04-28T02:52:34.857Z,6.40
2023-04-28T02:55:03.710Z,6.63
2023-04-28T02:57:30.679Z,6.60
2023-04-28T02:59:57.398Z,6.20
2023-04-28T03:02:24.267Z,6.80
2023-04-28T03:04:51.208Z,6.43
2023-04-28T03:07:17.999Z,6.50
2023-04-28T03:09:46.250Z,7.20
2023-04-28T03:12:13.178Z,7.50
2023-04-28T03:14:39.955Z,6.50
2023-04-28T03:17:07.551Z,6.40
2023-04-28T03:19:34.361Z,7.33
2023-04-28T03:22:01.109Z,7.17
2023-04-28T03:24:27.793Z,6.87
2023-04-28T03:26:54.633Z,6.53
2023-04-28T03:29:21.360Z,7.07
2023-04-28T03:31:48.088Z,7.30
2023-04-28T03:34:15.046Z,7.90
2023-04-28T03:36:41.949Z,7.40
2023-04-28T03:39:09.842Z,8.37
2023-04-28T03:41:36.544Z,7.60
2023-04-28T03:44:03.216Z,7.50
2023-04-28T03:46:29.948Z,8.00
2023-04-28T03:48:56.824Z,7.53
2023-04-28T03:51:23.560Z,7.63
2023-04-28T03:53:50.306Z,8.57
2023-04-28T03:56:16.990Z,8.60
2023-04-28T03:58:43.710Z,8.40
2023-04-28T04:01:10.785Z,7.97
2023-04-28T04:03:37.944Z,8.10
2023-04-28T04:06:05.130Z,8.50
2023-04-28T04:08:32.922Z,8.40
2023-04-28T04:10:59.737Z,9.10
2023-04-28T04:13:26.683Z,8.17
2023-04-28T04:15:53.452Z,8.70
2023-04-28T04:18:20.313Z,8.40
2023-04-28T04:20:47.127Z,8.27
2023-04-28T04:23:13.839Z,8.40
2023-04-28T04:25:40.767Z,7.50
2023-04-28T04:28:07.816Z,6.87
2023-04-28T04:30:34.561Z,8.03
2023-04-28T04:33:01.686Z,7.40
2023-04-28T04:35:28.554Z,7.87
2023-04-28T04:37:55.408Z,8.10
2023-04-28T04:40:22.624Z,8.87
2023-04-28T04:42:49.400Z,7.30
2023-04-28T04:45:16.332Z,7.63
2023-04-28T04:47:43.530Z,8.30
2023-04-28T04:50:11.389Z,8.93
2023-04-28T04:52:38.420Z,8.20
2023-04-28T04:55:06.023Z,9.13
2023-04-28T04:57:32.711Z,8.60
2023-04-28T04:59:59.474Z,8.97
2023-04-28T05:02:26.168Z,9.10
2023-04-28T05:04:53.640Z,9.07
2023-04-28T05:07:22.641Z,8.53
2023-04-28T05:09:49.619Z,9.97
2023-04-28T05:12:17.049Z,8.70
2023-04-28T05:14:44.171Z,9.90
2023-04-28T05:17:10.900Z,9.67
2023-04-28T05:19:37.729Z,9.37
2023-04-28T05:22:04.535Z,9.60
2023-04-28T05:24:31.292Z,9.17
2023-04-28T05:26:59.374Z,8.83
2023-04-28T05:29:26.069Z,9.80
2023-04-28T05:31:52.968Z,9.53
2023-04-28T05:34:19.935Z,8.97
2023-04-28T05:36:46.945Z,9.73
2023-04-28T05:39:13.708Z,9.37
2023-04-28T05:41:40.712Z,9.70
2023-04-28T05:44:07.504Z,8.83
2023-04-28T05:46:34.352Z,10.07
2023-04-28T05:49:01.344Z,8.33
2023-04-28T05:51:28.128Z,9.40
2023-04-28T05:53:54.839Z,9.40
2023-04-28T05:56:21.602Z,9.80
2023-04-28T05:58:50.466Z,9.53
2023-04-28T06:01:17.546Z,10.40
2023-04-28T06:03:45.265Z,8.67
2023-04-28T06:06:13.059Z,8.93
2023-04-28T06:08:39.942Z,10.40
2023-04-28T06:11:06.920Z,9.63
2023-04-28T06:13:33.712Z,9.40
2023-04-28T06:16:00.742Z,9.53
2023-04-28T06:18:27.687Z,10.33
2023-04-28T06:21:13.985Z,9.60
2023-04-28T06:23:42.241Z,10.37
2023-04-28T06:26:09.400Z,10.30
2023-04-28T06:28:36.219Z,10.00
2023-04-28T06:31:03.078Z,10.23
2023-04-28T06:33:29.973Z,10.37
2023-04-28T06:35:56.766Z,14.60
2023-04-28T06:38:23.956Z,10.87
2023-04-28T06:40:50.730Z,9.70
2023-04-28T06:43:17.513Z,9.70
2023-04-28T06:45:44.575Z,9.67
2023-04-28T06:48:11.384Z,9.70
2023-04-28T06:50:38.320Z,9.33
2023-04-28T06:53:05.102Z,10.53
2023-04-28T06:55:31.931Z,10.13
2023-04-28T06:57:58.835Z,9.73
2023-04-28T07:00:25.645Z,9.70
2023-04-28T07:02:52.624Z,10.63
2023-04-28T07:05:19.432Z,10.57
2023-04-28T07:07:46.290Z,11.60
2023-04-28T07:10:15.729Z,12.00
2023-04-28T07:12:42.616Z,10.47
2023-04-28T07:15:10.451Z,10.67
2023-04-28T07:17:37.721Z,10.93
2023-04-28T07:20:05.476Z,12.20
2023-04-28T07:22:32.285Z,11.30
2023-04-28T07:24:59.071Z,10.40
2023-04-28T07:27:25.906Z,10.50
2023-04-28T07:29:52.626Z,11.33
2023-04-28T07:32:19.527Z,12.20
2023-04-28T07:34:46.482Z,11.43
2023-04-28T07:37:13.361Z,10.80
2023-04-28T07:39:41.642Z,9.90
2023-04-28T07:42:08.609Z,11.53
2023-04-28T07:44:35.575Z,10.80
2023-04-28T07:47:02.867Z,10.37
2023-04-28T07:49:29.896Z,11.40
2023-04-28T07:51:56.925Z,11.10
2023-04-28T07:54:24.186Z,11.87
2023-04-28T07:56:51.349Z,10.97
2023-04-28T07:59:18.128Z,11.30
2023-04-28T08:01:44.896Z,11.20
2023-04-28T08:04:11.992Z,11.33
2023-04-28T08:06:40.095Z,11.17
2023-04-28T08:09:07.124Z,11.47
2023-04-28T08:11:34.770Z,10.70
2023-04-28T08:14:03.174Z,11.07
2023-04-28T08:16:31.524Z,11.00
2023-04-28T08:18:59.652Z,12.40
2023-04-28T08:21:27.100Z,11.10
2023-04-28T08:23:53.985Z,11.03
2023-04-28T08:26:20.848Z,11.07
2023-04-28T08:28:47.628Z,11.40
2023-04-28T08:31:14.472Z,10.87
2023-04-28T08:33:44.574Z,9.80
2023-04-28T08:36:15.157Z,10.63
2023-04-28T08:38:43.097Z,10.40
2023-04-28T08:41:10.209Z,11.03
2023-04-28T08:43:38.770Z,10.50
2023-04-28T08:46:08.538Z,10.23
2023-04-28T08:48:45.203Z,10.60
2023-04-28T08:51:23.408Z,10.30
2023-04-28T08:56:26.810Z,9.50
2023-04-28T08:58:54.800Z,11.03
2023-04-28T09:01:21.546Z,9.87
2023-04-28T09:03:49.335Z,10.00
2023-04-28T09:06:16.398Z,9.63
2023-04-28T09:08:43.137Z,10.40
2023-04-28T09:11:13.464Z,9.80
2023-04-28T09:13:40.954Z,9.87
2023-04-28T09:16:08.042Z,9.90
2023-04-28T09:18:34.949Z,10.67
2023-04-28T09:21:09.495Z,10.53
2023-04-28T09:23:48.755Z,9.80
2023-04-28T09:26:15.541Z,10.37
2023-04-28T09:28:42.487Z,10.10
2023-04-28T09:31:29.560Z,10.07
2023-04-28T09:34:00.285Z,9.30
2023-04-28T09:36:30.615Z,10.40
2023-04-28T09:39:00.940Z,10.20
2023-04-28T09:41:38.361Z,9.80
2023-04-28T09:44:19.576Z,10.10
2023-04-28T09:46:47.461Z,12.20
2023-04-28T09:49:15.422Z,11.23
2023-04-28T09:51:43.044Z,10.60
2023-04-28T09:54:11.308Z,10.20
2023-04-28T09:56:40.782Z,11.20
2023-04-28T09:59:08.133Z,11.20
2023-04-28T10:01:40.608Z,10.77
2023-04-28T10:04:08.969Z,10.17
2023-04-28T10:06:36.924Z,11.93
2023-04-28T10:09:03.999Z,11.17
2023-04-28T10:11:31.502Z,12.40
2023-04-28T10:13:58.269Z,12.77
2023-04-28T10:16:27.722Z,12.03
2023-04-28T10:18:56.661Z,11.80
2023-04-28T10:21:24.630Z,12.23
2023-04-28T10:23:57.949Z,13.30
2023-04-28T10:26:36.567Z,14.13
2023-04-28T10:29:03.907Z,13.03
2023-04-28T10:31:30.678Z,12.70
2023-04-28T10:34:24.504Z,12.33
2023-04-28T10:36:54.951Z,12.17
2023-04-28T10:39:21.786Z,12.27
2023-04-28T10:41:49.228Z,11.57
2023-04-28T10:44:28.433Z,11.47
2023-04-28T10:47:09.567Z,11.87
2023-04-28T10:49:56.212Z,12.07
2023-04-28T10:52:49.907Z,12.30
2023-04-28T10:55:41.858Z,11.80
2023-04-28T10:58:20.553Z,12.53
2023-04-28T11:00:48.063Z,12.00
2023-04-28T11:03:38.257Z,12.00
2023-04-28T11:06:28.432Z,11.00
2023-04-28T11:09:15.359Z,11.10
2023-04-28T11:12:00.766Z,11.97
2023-04-28T11:14:33.950Z,10.20
2023-04-28T11:17:04.735Z,10.70
2023-04-28T11:19:39.297Z,10.17
2023-04-28T11:22:13.914Z,10.40
2023-04-28T11:24:40.794Z,9.60
2023-04-28T11:27:08.452Z,10.83
2023-04-28T11:29:38.086Z,10.10
2023-04-28T11:32:06.801Z,9.50
2023-04-28T11:34:34.377Z,9.33
2023-04-28T11:37:01.330Z,9.27
2023-04-28T11:39:34.731Z,10.13
2023-04-28T11:42:09.087Z,9.70
2023-04-28T11:44:36.006Z,8.87
2023-04-28T11:47:04.117Z,9.80
2023-04-28T11:49:45.563Z,9.63
2023-04-28T11:52:13.794Z,10.10
2023-04-28T11:54:43.347Z,10.70
2023-04-28T11:57:21.106Z,10.23
2023-04-28T11:59:49.065Z,10.00
2023-04-28T12:02:17.764Z,10.90
2023-04-28T12:04:44.577Z,11.40
2023-04-28T12:07:16.755Z,11.27
2023-04-28T12:09:45.341Z,11.17
2023-04-28T12:12:40.248Z,10.63
2023-04-28T12:15:12.671Z,10.60
2023-04-28T12:17:41.794Z,10.90
2023-04-28T12:20:10.399Z,11.73
2023-04-28T12:22:47.601Z,11.23
2023-04-28T12:25:19.370Z,11.13
2023-04-28T12:28:07.401Z,11.10
2023-04-28T12:30:38.745Z,12.00
2023-04-28T12:33:05.997Z,11.20
2023-04-28T12:35:33.304Z,13.07
2023-04-28T12:38:00.335Z,11.73
2023-04-28T12:40:27.432Z,12.70
2023-04-28T12:42:54.714Z,11.40
2023-04-28T12:45:21.460Z,12.30
2023-04-28T12:47:48.452Z,12.83
2023-04-28T12:50:15.305Z,11.30
2023-04-28T12:52:42.131Z,13.37
2023-04-28T12:55:09.324Z,12.90
2023-04-28T12:57:39.120Z,12.53
2023-04-28T13:00:07.646Z,12.37
2023-04-28T13:02:35.027Z,13.37
2023-04-28T13:05:02.138Z,13.00
2023-04-28T13:07:30.361Z,12.87
2023-04-28T13:09:58.051Z,13.90
2023-04-28T13:12:25.044Z,13.10
2023-04-28T13:14:51.830Z,13.50
2023-04-28T13:17:18.645Z,13.87
2023-04-28T13:19:45.600Z,13.23
2023-04-28T13:22:12.554Z,14.30
2023-04-28T13:24:39.361Z,13.30
2023-04-28T13:27:09.734Z,13.77
2023-04-28T13:29:37.348Z,14.60
2023-04-28T13:32:05.611Z,13.10
2023-04-28T13:34:32.883Z,13.93
2023-04-28T13:36:59.652Z,14.20
2023-04-28T13:39:26.423Z,14.10
2023-04-28T13:41:53.175Z,13.87
2023-04-28T13:44:19.997Z,13.70
2023-04-28T13:46:47.235Z,13.60
2023-04-28T13:49:14.037Z,13.37
2023-04-28T13:51:41.042Z,14.07
2023-04-28T13:54:08.963Z,12.73
2023-04-28T13:56:36.671Z,13.63
2023-04-28T13:59:03.981Z,14.13
2023-04-28T14:01:31.014Z,13.67
2023-04-28T14:03:58.152Z,14.67
2023-04-28T14:06:25.125Z,14.00
2023-04-28T14:08:51.990Z,14.00
2023-04-28T14:11:18.779Z,14.30
2023-04-28T14:13:45.533Z,14.47
2023-04-28T14:16:12.469Z,14.63
2023-04-28T14:18:39.217Z,14.60
2023-04-28T14:21:08.367Z,14.53
2023-04-28T14:23:35.645Z,14.93
2023-04-28T14:26:02.671Z,15.73
2023-04-28T14:28:29.617Z,16.33
2023-04-28T14:30:56.739Z,14.07
2023-04-28T14:33:24.305Z,14.90
2023-04-28T14:35:51.186Z,16.70
2023-04-28T14:38:18.048Z,15.97
2023-04-28T14:40:44.866Z,16.20
2023-04-28T14:43:11.643Z,15.20
2023-04-28T14:45:38.578Z,16.13
2023-04-28T14:48:07.074Z,15.73
2023-04-28T14:50:34.397Z,16.17
2023-04-28T14:53:05.521Z,15.27
2023-04-28T14:55:33.059Z,15.67
2023-04-28T14:57:59.814Z,15.30
2023-04-28T15:00:26.592Z,16.30
2023-04-28T15:02:53.674Z,15.73
2023-04-28T15:05:20.591Z,15.70
2023-04-28T15:07:47.449Z,15.83
2023-04-28T15:10:14.307Z,14.97
2023-04-28T15:12:42.448Z,15.57
2023-04-28T15:15:10.237Z,15.43
2023-04-28T15:17:37.101Z,15.60
2023-04-28T15:20:05.098Z,15.70
2023-04-28T15:22:31.832Z,15.53
2023-04-28T15:24:58.636Z,13.90
2023-04-28T15:27:25.442Z,15.50
2023-04-28T15:29:52.194Z,16.43
2023-04-28T15:32:19.168Z,15.20
2023-04-28T15:34:46.157Z,15.07
2023-04-28T15:37:38.455Z,15.40
2023-04-28T15:40:06.068Z,15.40
2023-04-28T15:42:32.960Z,16.10
2023-04-28T15:44:59.929Z,15.63
2023-04-28T15:47:26.717Z,16.23
2023-04-28T15:49:53.455Z,16.73
2023-04-28T15:52:20.263Z,15.53
2023-04-28T15:54:47.173Z,16.60
2023-04-28T15:57:14.024Z,16.70
2023-04-28T15:59:41.132Z,15.90
2023-04-28T16:02:08.667Z,17.43
2023-04-28T16:04:35.476Z,15.23
2023-04-28T16:07:02.668Z,14.77
2023-04-28T16:09:30.005Z,15.73
2023-04-28T16:11:59.441Z,16.30
2023-04-28T16:14:26.997Z,14.50
2023-04-28T16:16:53.934Z,14.97
2023-04-28T16:19:21.738Z,14.80
2023-04-28T16:21:48.539Z,16.07
2023-04-28T16:24:15.279Z,15.30
2023-04-28T16:26:42.158Z,16.43
2023-04-28T16:29:08.961Z,15.37
2023-04-28T16:31:36.338Z,17.33
2023-04-28T16:34:03.921Z,17.77
2023-04-28T16:36:33.031Z,17.83
2023-04-28T16:38:59.881Z,18.40
2023-04-28T16:41:26.633Z,20.70
2023-04-28T16:43:53.418Z,18.17
2023-04-28T16:46:20.529Z,20.37
2023-04-28T16:48:47.334Z,20.20
2023-04-28T16:51:14.113Z,19.50
2023-04-28T16:53:41.358Z,20.60
2023-04-28T16:56:10.372Z,20.20
2023-04-28T16:58:37.508Z,20.80
2023-04-28T17:01:04.362Z,20.07
2023-04-28T17:03:31.605Z,20.90
2023-04-28T17:05:59.676Z,20.37
2023-04-28T17:08:26.796Z,20.90
2023-04-28T17:10:53.691Z,21.33
2023-04-28T17:13:20.446Z,22.77
2023-04-28T17:15:54.954Z,22.73
2023-04-28T17:18:21.831Z,23.07
2023-04-28T17:20:48.667Z,25.37
2023-04-28T17:23:15.763Z,23.90
2023-04-28T17:25:42.769Z,24.00
2023-04-28T17:28:09.671Z,26.03
2023-04-28T17:30:36.848Z,25.20
2023-04-28T17:33:04.080Z,24.70
2023-04-28T17:35:30.876Z,25.23
2023-04-28T17:37:57.608Z,24.70
2023-04-28T17:40:24.560Z,25.80
2023-04-28T17:42:54.169Z,24.70
2023-04-28T17:45:20.986Z,26.50
2023-04-28T17:47:47.829Z,27.27
2023-04-28T17:50:14.566Z,28.20
2023-04-28T17:52:43.995Z,25.30
2023-04-28T17:55:11.067Z,28.13
2023-04-28T17:57:37.975Z,24.57
2023-04-28T18:00:06.302Z,20.63
2023-04-28T18:02:33.463Z,21.17
2023-04-28T18:05:00.369Z,21.50
2023-04-28T18:07:27.462Z,18.20
2023-04-28T18:09:56.993Z,15.83
2023-04-28T18:12:24.634Z,15.33
2023-04-28T18:14:51.984Z,14.18
2023-04-28T18:17:18.976Z,14.50
2023-04-28T18:19:51.283Z,10.53
2023-04-28T18:22:18.484Z,10.37
2023-04-28T18:24:45.250Z,9.63
2023-04-28T18:27:12.005Z,9.50
2023-04-28T18:29:38.805Z,9.37
2023-04-28T18:32:05.669Z,8.97
2023-04-28T18:34:32.455Z,8.57
2023-04-28T18:36:59.224Z,8.40
2023-04-28T18:39:26.195Z,8.10
2023-04-28T18:41:53.186Z,7.80
2023-04-28T18:44:20.000Z,8.63
2023-04-28T18:46:46.711Z,8.60
2023-04-28T18:49:14.662Z,9.13
2023-04-28T18:51:41.467Z,8.73
2023-04-28T18:54:08.454Z,8.63
2023-04-28T18:56:36.131Z,9.23
2023-04-28T18:59:05.983Z,8.80
2023-04-28T19:01:32.814Z,10.03
2023-04-28T19:03:59.858Z,9.70
2023-04-28T19:06:26.957Z,9.80
2023-04-28T19:08:53.805Z,9.80
2023-04-28T19:11:20.559Z,9.20
2023-04-28T19:13:47.752Z,9.57
2023-04-28T19:16:14.723Z,9.50
2023-04-28T19:18:42.236Z,9.83
2023-04-28T19:21:12.240Z,9.80
2023-04-28T19:23:41.266Z,10.10
2023-04-28T19:26:09.264Z,10.60
2023-04-28T19:28:36.135Z,10.60
2023-04-28T19:31:02.975Z,10.93
2023-04-28T19:33:29.798Z,10.90
2023-04-28T19:35:56.677Z,10.40
2023-04-28T19:38:23.707Z,10.33
2023-04-28T19:40:58.162Z,10.10
2023-04-28T19:43:25.007Z,11.90
2023-04-28T19:45:51.997Z,11.97
2023-04-28T19:48:19.444Z,11.97
2023-04-28T19:50:46.656Z,10.43
2023-04-28T19:53:13.679Z,10.90
2023-04-28T19:55:40.650Z,11.10
2023-04-28T19:58:09.774Z,11.10
2023-04-28T20:00:36.697Z,10.90
2023-04-28T20:03:04.086Z,10.90
2023-04-28T20:05:31.356Z,11.33
2023-04-28T20:07:58.134Z,10.90
2023-04-28T20:10:25.035Z,10.97
2023-04-28T20:12:51.896Z,10.77
2023-04-28T20:15:19.109Z,11.20
2023-04-28T20:17:46.308Z,11.17
2023-04-28T20:20:13.532Z,11.00
2023-04-28T20:22:43.011Z,11.20
2023-04-28T20:25:10.780Z,11.00
2023-04-28T20:27:37.805Z,10.30
2023-04-28T20:30:05.321Z,11.27
2023-04-28T20:32:32.349Z,10.80
2023-04-28T20:34:59.455Z,10.47
2023-04-28T20:37:26.510Z,10.70
2023-04-28T20:39:53.556Z,9.80
2023-04-28T20:42:20.452Z,10.00
2023-04-28T20:44:47.211Z,10.23
2023-04-28T20:47:14.362Z,10.60
2023-04-28T20:49:41.961Z,10.03
2023-04-28T20:52:09.272Z,10.80
2023-04-28T20:54:36.482Z,10.00
2023-04-28T20:57:04.800Z,11.80
2023-04-28T20:59:32.857Z,11.20
2023-04-28T21:02:00.347Z,12.43
2023-04-28T21:04:28.237Z,12.50
2023-04-28T21:06:55.564Z,12.80
2023-04-28T21:09:25.052Z,12.33
2023-04-28T21:11:52.099Z,12.50
2023-04-28T21:14:18.969Z,14.00
2023-04-28T21:16:45.833Z,12.60
2023-04-28T21:19:12.824Z,12.17
2023-04-28T21:21:39.611Z,13.30
2023-04-28T21:24:07.914Z,12.53
2023-04-28T21:26:35.810Z,11.73
2023-04-28T21:29:02.915Z,12.50
2023-04-28T21:31:31.253Z,11.90
2023-04-28T21:33:58.223Z,12.33
2023-04-28T21:36:25.025Z,12.90
2023-04-28T21:38:51.907Z,12.07
2023-04-28T21:41:18.692Z,12.27
2023-04-28T21:43:45.926Z,13.47
2023-04-28T21:46:13.226Z,12.43
2023-04-28T21:48:40.151Z,12.67
2023-04-28T21:51:06.956Z,13.40
2023-04-28T21:53:33.797Z,13.20
2023-04-28T21:56:02.738Z,13.17
2023-04-28T21:58:29.591Z,13.23
2023-04-28T22:00:56.368Z,13.63
2023-04-28T22:03:23.639Z,13.03
2023-04-28T22:05:51.154Z,13.83
2023-04-28T22:08:18.186Z,13.30
2023-04-28T22:10:45.562Z,12.80
2023-04-28T22:13:12.965Z,12.30
2023-04-28T22:15:39.873Z,14.57
2023-04-28T22:18:08.016Z,13.33
2023-04-28T22:20:34.826Z,14.90
2023-04-28T22:23:01.609Z,14.50
2023-04-28T22:25:28.368Z,14.00
2023-04-28T22:27:55.217Z,13.63
2023-04-28T22:30:24.334Z,14.60
2023-04-28T22:32:52.599Z,14.43
2023-04-28T22:35:19.599Z,14.37
2023-04-28T22:37:46.299Z,14.13
2023-04-28T22:40:13.571Z,14.30
2023-04-28T22:42:41.463Z,14.40
2023-04-28T22:45:09.994Z,15.13
2023-04-28T22:47:38.628Z,13.87
2023-04-28T22:50:06.531Z,14.87
2023-04-28T22:52:34.008Z,15.57
2023-04-28T22:55:01.111Z,16.60
2023-04-28T22:57:28.134Z,19.30
2023-04-28T22:59:54.972Z,19.83
2023-04-28T23:02:22.913Z,20.10
2023-04-28T23:04:50.038Z,21.43
2023-04-28T23:07:17.053Z,19.83
2023-04-28T23:09:43.820Z,19.83
2023-04-28T23:12:10.656Z,20.60
2023-04-28T23:14:38.140Z,21.23
2023-04-28T23:17:05.067Z,21.87
2023-04-28T23:19:32.054Z,22.30
2023-04-28T23:21:58.837Z,21.47
2023-04-28T23:24:27.114Z,22.90
2023-04-28T23:26:53.983Z,24.30
2023-04-28T23:29:20.706Z,24.43
2023-04-28T23:31:52.494Z,24.40
2023-04-28T23:34:19.465Z,26.63
2023-04-28T23:36:46.246Z,25.10
2023-04-28T23:39:13.662Z,27.37
2023-04-28T23:41:41.019Z,27.43
2023-04-28T23:44:08.359Z,27.77
2023-04-28T23:46:36.738Z,27.90
2023-04-28T23:49:03.835Z,30.90
2023-04-28T23:51:32.211Z,31.03
2023-04-28T23:53:59.395Z,30.00
2023-04-28T23:56:26.857Z,31.60
2023-04-28T23:58:53.878Z,32.17
